Alfred, Maine
Current Conditions -  °F | °C
As of 9:15 PM on Monday 22 Dec 2014 (Local Time) from KSFM Reporting Station
Overcast Overcast  
Wind Chill: 30°   Ceiling: 800
Heat Index: 34°   Visibility: 8mi
Dew Point: 28°   Wind: 5mph
Humidity: 81%   Direction: 20°NNE
Pressure: 30.35"   Gusts: NA
Location:  43.48°N, 70.72°W
Report Text: KSFM 230215Z AUTO 02004KT 8SM BKN008 OVC015 01/M02 A3035 RMK AO1 P0001
Loading
Personal Weather Stations






























Interactive Weather Map New forecast layout! Learn more

10-Day Weather Forecast

Advertisements
Track Severe Weather on mobile